Terminal Aerodrome Forecast
Issued by NWS Charleston, WV

Current Version | Previous Version | Text Only | Print | Product List | Glossary Off
Versions: 1 2 3 4 5 6 7 8 9 10 11 12 13 14 15 16 17 18 19 20

755
FTUS41 KRLX 020528
TAFPKB
TAF
KPKB 020528Z 0206/0306 00000KT P6SM SCT070
     FM020730 21004KT 3SM SHRA BR BKN040
     FM020830 VRB03KT 5SM BR BKN035
     FM021100 21004KT P6SM BKN025
     FM021500 24008KT P6SM BKN035
     FM022300 28007KT P6SM -SHRA BKN060=

USA.gov is the U.S. government's official web portal to all federal, state and local government web resources and services.